Time;durP1;ratioP1;P1;durP2;ratioP2;P2;SDS_P1;SDS_P2;PMS_P1;PMS_P2;Temp;Humidity;BMP_temperature;BMP_pressure;BME280_temperature;BME280_humidity;BME280_pressure;Samples;Min_cycle;Max_cycle;Signal;HPM_P1;HPM_P2
2022/10/06 00:01:43;;;;;;;;;;;15.80;92.70;;;;;;5064642;28;19923;-70
2022/10/06 00:04:08;;;;;;;;;;;15.80;92.60;;;;;;5084595;28;19912;-71
2022/10/06 00:06:34;;;;;;;;;;;15.70;92.60;;;;;;5081292;28;19923;-71
2022/10/06 00:08:59;;;;;;;;;;;15.70;92.70;;;;;;5085307;28;19916;-71
2022/10/06 00:11:25;;;;;;;;;;;15.70;92.70;;;;;;5083901;28;20607;-70
2022/10/06 00:13:50;;;;;;;;;;;15.70;92.70;;;;;;5083073;28;19923;-71
2022/10/06 00:16:20;;;;;;;;;;;15.60;92.70;;;;;;5084535;28;20050;-71
2022/10/06 00:18:45;;;;;;;;;;;15.60;92.70;;;;;;5082031;28;19916;-71
2022/10/06 00:21:11;;;;;;;;;;;15.60;92.70;;;;;;5085738;28;20350;-71
2022/10/06 00:23:37;;;;;;;;;;;15.60;92.70;;;;;;5078107;28;20451;-71
2022/10/06 00:26:02;;;;;;;;;;;15.60;92.60;;;;;;5083414;28;19935;-71
2022/10/06 00:28:28;;;;;;;;;;;15.50;92.70;;;;;;5078495;28;20335;-71
2022/10/06 00:30:55;;;;;;;;;;;15.50;92.70;;;;;;5067206;28;19912;-71
2022/10/06 00:33:20;;;;;;;;;;;15.50;92.60;;;;;;5082652;28;20697;-72
2022/10/06 00:35:46;;;;;;;;;;;15.40;92.40;;;;;;5085461;28;19917;-71
2022/10/06 00:38:13;;;;;;;;;;;15.50;92.50;;;;;;5080806;28;19916;-71
2022/10/06 00:40:42;;;;;;;;;;;15.40;92.70;;;;;;5085351;28;20398;-70
2022/10/06 00:43:26;;;;;;;;;;;15.40;92.60;;;;;;5080983;28;19916;-71
2022/10/06 00:45:52;;;;;;;;;;;15.40;92.60;;;;;;5082524;28;19916;-71
2022/10/06 00:48:20;;;;;;;;;;;15.30;92.70;;;;;;5081023;28;20066;-71
2022/10/06 00:50:46;;;;;;;;;;;15.30;92.70;;;;;;5085313;28;20307;-71
2022/10/06 00:53:12;;;;;;;;;;;15.30;92.50;;;;;;5082555;28;19916;-71
2022/10/06 00:55:38;;;;;;;;;;;15.20;92.50;;;;;;5078802;28;19958;-71
2022/10/06 00:58:03;;;;;;;;;;;15.20;92.60;;;;;;5079570;28;20062;-71
2022/10/06 01:00:29;;;;;;;;;;;15.20;92.60;;;;;;5077751;28;19981;-71
2022/10/06 01:02:57;;;;;;;;;;;15.20;92.60;;;;;;5081736;28;19960;-71
2022/10/06 01:05:32;;;;;;;;;;;15.20;92.80;;;;;;5078698;28;20376;-70
2022/10/06 01:07:57;;;;;;;;;;;15.10;92.80;;;;;;5083505;28;19919;-71
2022/10/06 01:10:23;;;;;;;;;;;15.10;92.70;;;;;;5064076;28;19916;-71
2022/10/06 01:12:48;;;;;;;;;;;15.10;92.80;;;;;;5084608;28;19923;-71
2022/10/06 01:15:15;;;;;;;;;;;15.00;92.80;;;;;;5080996;28;20435;-71
2022/10/06 01:17:43;;;;;;;;;;;15.00;92.70;;;;;;5084507;28;20030;-70
2022/10/06 01:20:13;;;;;;;;;;;15.00;92.70;;;;;;5082173;28;19935;-71
2022/10/06 01:22:43;;;;;;;;;;;15.00;92.70;;;;;;5082534;28;20406;-71
2022/10/06 01:25:10;;;;;;;;;;;15.00;92.80;;;;;;5081313;28;20261;-71
2022/10/06 01:27:37;;;;;;;;;;;14.90;92.80;;;;;;5085013;28;19927;-71
2022/10/06 01:30:03;;;;;;;;;;;14.90;92.80;;;;;;5080401;28;19954;-71
2022/10/06 01:32:32;;;;;;;;;;;14.90;93.00;;;;;;5081639;28;20010;-71
2022/10/06 01:34:57;;;;;;;;;;;14.90;93.00;;;;;;5080278;28;20510;-71
2022/10/06 01:37:23;;;;;;;;;;;14.80;92.90;;;;;;5086747;28;19916;-70
2022/10/06 01:39:48;;;;;;;;;;;14.80;93.00;;;;;;5088133;28;19912;-70
2022/10/06 01:42:13;;;;;;;;;;;14.80;93.10;;;;;;5085903;28;19912;-71
2022/10/06 01:44:39;;;;;;;;;;;14.80;93.10;;;;;;5088250;28;20035;-70
2022/10/06 01:47:05;;;;;;;;;;;14.70;92.90;;;;;;5085888;28;19916;-71
2022/10/06 01:49:30;;;;;;;;;;;14.70;93.00;;;;;;5069316;28;19916;-71
2022/10/06 01:51:56;;;;;;;;;;;14.70;93.10;;;;;;5085605;28;19927;-71
2022/10/06 01:54:22;;;;;;;;;;;14.70;93.00;;;;;;5086607;28;19915;-71
2022/10/06 01:56:47;;;;;;;;;;;14.70;92.90;;;;;;5064225;28;19930;-71
2022/10/06 01:59:13;;;;;;;;;;;14.70;93.00;;;;;;5087983;28;19923;-71
2022/10/06 02:01:38;;;;;;;;;;;14.60;93.10;;;;;;5085295;28;20040;-70
2022/10/06 02:04:04;;;;;;;;;;;14.60;93.10;;;;;;5088018;28;19923;-70
2022/10/06 02:06:30;;;;;;;;;;;14.60;93.10;;;;;;5083706;28;19920;-70
2022/10/06 02:08:55;;;;;;;;;;;14.60;93.20;;;;;;5087486;28;20636;-70
2022/10/06 02:11:21;;;;;;;;;;;14.50;93.30;;;;;;5081624;28;19912;-70
2022/10/06 02:13:47;;;;;;;;;;;14.60;93.20;;;;;;5087072;28;19916;-70
2022/10/06 02:16:12;;;;;;;;;;;14.50;93.30;;;;;;5087542;28;19908;-71
2022/10/06 02:18:38;;;;;;;;;;;14.50;93.20;;;;;;5082798;28;19916;-71
2022/10/06 02:21:04;;;;;;;;;;;14.50;93.10;;;;;;5088005;28;19918;-70
2022/10/06 02:23:30;;;;;;;;;;;14.50;93.10;;;;;;5084876;28;19916;-70
2022/10/06 02:26:03;;;;;;;;;;;14.50;93.30;;;;;;5087776;28;20343;-71
2022/10/06 02:28:28;;;;;;;;;;;14.40;93.30;;;;;;5079465;28;19920;-71
2022/10/06 02:30:54;;;;;;;;;;;14.40;93.30;;;;;;5088004;28;19934;-71
2022/10/06 02:33:20;;;;;;;;;;;14.40;93.40;;;;;;5080848;28;19927;-70
2022/10/06 02:35:46;;;;;;;;;;;14.40;93.40;;;;;;5087381;28;19912;-70
2022/10/06 02:38:11;;;;;;;;;;;14.40;93.40;;;;;;5083157;28;19912;-70
2022/10/06 02:40:37;;;;;;;;;;;14.40;93.40;;;;;;5087555;28;19985;-70
2022/10/06 02:43:02;;;;;;;;;;;14.30;93.40;;;;;;5083822;28;19930;-71
2022/10/06 02:45:29;;;;;;;;;;;14.30;93.40;;;;;;5087204;28;19916;-71
2022/10/06 02:47:55;;;;;;;;;;;14.30;93.30;;;;;;5080806;28;19923;-71
2022/10/06 02:50:21;;;;;;;;;;;14.30;93.40;;;;;;5085588;28;19916;-70
2022/10/06 02:52:46;;;;;;;;;;;14.30;93.40;;;;;;5083962;28;19916;-70
2022/10/06 02:55:12;;;;;;;;;;;14.20;93.40;;;;;;5086261;28;19985;-70
2022/10/06 02:57:38;;;;;;;;;;;14.20;93.40;;;;;;5087269;28;20056;-71
2022/10/06 03:00:07;;;;;;;;;;;14.20;93.40;;;;;;5083475;28;19916;-70
2022/10/06 03:02:32;;;;;;;;;;;14.20;93.30;;;;;;5086728;28;19912;-70
2022/10/06 03:04:58;;;;;;;;;;;14.20;93.40;;;;;;5083825;28;20322;-71
2022/10/06 03:07:23;;;;;;;;;;;14.20;93.40;;;;;;5081677;28;19949;-70
2022/10/06 03:09:49;;;;;;;;;;;14.20;93.30;;;;;;5064464;28;20371;-71
2022/10/06 03:12:14;;;;;;;;;;;14.20;93.30;;;;;;5084531;28;19920;-70
2022/10/06 03:14:40;;;;;;;;;;;14.20;93.30;;;;;;5083324;28;19969;-70
2022/10/06 03:17:08;;;;;;;;;;;14.10;93.40;;;;;;5086121;28;19947;-70
2022/10/06 03:19:33;;;;;;;;;;;14.10;93.40;;;;;;5083901;28;19916;-70
2022/10/06 03:21:59;;;;;;;;;;;14.10;93.30;;;;;;5086635;28;19919;-70
2022/10/06 03:24:24;;;;;;;;;;;14.10;93.30;;;;;;5083713;28;19926;-70
2022/10/06 03:26:50;;;;;;;;;;;14.10;93.30;;;;;;5086592;28;19909;-70
2022/10/06 03:29:15;;;;;;;;;;;14.10;93.40;;;;;;5080940;28;19923;-70
2022/10/06 03:31:42;;;;;;;;;;;14.10;93.50;;;;;;5086396;28;20007;-70
2022/10/06 03:34:07;;;;;;;;;;;14.00;93.40;;;;;;5086138;28;19916;-70
2022/10/06 03:36:33;;;;;;;;;;;14.10;93.40;;;;;;5083392;28;20316;-70
2022/10/06 03:38:59;;;;;;;;;;;14.00;93.30;;;;;;5083855;28;19923;-70
2022/10/06 03:41:26;;;;;;;;;;;14.00;93.40;;;;;;5083542;28;19943;-71
2022/10/06 03:43:52;;;;;;;;;;;14.00;93.40;;;;;;5084811;28;20003;-70
2022/10/06 03:46:19;;;;;;;;;;;14.00;93.40;;;;;;5065493;28;20744;-70
2022/10/06 03:48:45;;;;;;;;;;;14.00;93.50;;;;;;5084942;28;19916;-70
2022/10/06 03:51:12;;;;;;;;;;;14.00;93.50;;;;;;5083817;28;20372;-70
2022/10/06 03:53:38;;;;;;;;;;;13.90;93.40;;;;;;5085269;28;20337;-70
2022/10/06 03:56:11;;;;;;;;;;;13.90;93.40;;;;;;5080703;28;19939;-70
2022/10/06 03:58:38;;;;;;;;;;;13.90;93.30;;;;;;5083047;28;19926;-70
2022/10/06 04:01:05;;;;;;;;;;;13.90;93.40;;;;;;5079964;28;19923;-71
2022/10/06 04:03:31;;;;;;;;;;;13.90;93.40;;;;;;5083327;28;20006;-70
2022/10/06 04:05:57;;;;;;;;;;;13.90;93.50;;;;;;5081167;28;19920;-70
2022/10/06 04:08:23;;;;;;;;;;;13.90;93.50;;;;;;5085768;28;19912;-70
2022/10/06 04:10:49;;;;;;;;;;;13.90;93.50;;;;;;5082524;28;20558;-70
2022/10/06 04:13:16;;;;;;;;;;;13.90;93.50;;;;;;5066309;28;19924;-70
2022/10/06 04:15:42;;;;;;;;;;;13.80;93.50;;;;;;5083519;28;19912;-70
2022/10/06 04:18:07;;;;;;;;;;;13.80;93.30;;;;;;5083236;28;19916;-70
2022/10/06 04:20:32;;;;;;;;;;;13.80;93.40;;;;;;5085118;28;19916;-70
2022/10/06 04:22:58;;;;;;;;;;;13.80;93.40;;;;;;5081955;28;19920;-70
2022/10/06 04:25:23;;;;;;;;;;;13.80;93.50;;;;;;5085263;28;19946;-70
2022/10/06 04:27:49;;;;;;;;;;;13.80;93.30;;;;;;5082444;28;19912;-70
2022/10/06 04:30:14;;;;;;;;;;;13.80;93.50;;;;;;5084931;28;20416;-70
2022/10/06 04:32:40;;;;;;;;;;;13.80;93.50;;;;;;5064818;28;19923;-70
2022/10/06 04:35:05;;;;;;;;;;;13.70;93.50;;;;;;5084395;28;19926;-70
2022/10/06 04:37:31;;;;;;;;;;;13.70;93.50;;;;;;5061105;28;19915;-70
2022/10/06 04:39:56;;;;;;;;;;;13.70;93.50;;;;;;5066431;28;19912;-70
2022/10/06 04:42:22;;;;;;;;;;;13.70;93.60;;;;;;5082697;28;20524;-70
2022/10/06 04:44:47;;;;;;;;;;;13.70;93.50;;;;;;5081854;28;19920;-70
2022/10/06 04:47:13;;;;;;;;;;;13.70;93.50;;;;;;5082420;28;20387;-70
2022/10/06 04:49:38;;;;;;;;;;;13.70;93.50;;;;;;5080715;28;19965;-71
2022/10/06 04:52:04;;;;;;;;;;;13.70;93.60;;;;;;5085527;28;19984;-70
2022/10/06 04:54:29;;;;;;;;;;;13.60;93.40;;;;;;5081993;28;19916;-70
2022/10/06 04:56:55;;;;;;;;;;;13.60;93.50;;;;;;5084895;28;19916;-70
2022/10/06 05:00:21;;;;;;;;;;;13.60;93.40;;;;;;5082334;28;19916;-70
2022/10/06 05:02:06;;;;;;;;;;;13.60;93.50;;;;;;5082108;28;19923;-70
2022/10/06 05:04:32;;;;;;;;;;;13.60;93.50;;;;;;5082188;28;19912;-70
2022/10/06 05:06:57;;;;;;;;;;;13.60;93.60;;;;;;5085038;28;19969;-70
2022/10/06 05:09:23;;;;;;;;;;;13.50;93.50;;;;;;5080439;28;19961;-70
2022/10/06 05:11:48;;;;;;;;;;;13.50;93.50;;;;;;5082710;28;20057;-70
2022/10/06 05:14:13;;;;;;;;;;;13.50;93.50;;;;;;5081893;28;19928;-70
2022/10/06 05:16:39;;;;;;;;;;;13.50;93.50;;;;;;5084230;28;20396;-70
2022/10/06 05:19:05;;;;;;;;;;;13.50;93.50;;;;;;5081657;28;19920;-70
2022/10/06 05:21:31;;;;;;;;;;;13.50;93.50;;;;;;5082382;28;19908;-70
2022/10/06 05:23:57;;;;;;;;;;;13.40;93.40;;;;;;5081048;28;19927;-70
2022/10/06 05:26:24;;;;;;;;;;;13.40;93.50;;;;;;5084048;28;20003;-70
2022/10/06 05:28:49;;;;;;;;;;;13.40;93.50;;;;;;5077579;28;19974;-70
2022/10/06 05:31:15;;;;;;;;;;;13.40;93.50;;;;;;5075872;28;20448;-70
2022/10/06 05:33:40;;;;;;;;;;;13.40;93.40;;;;;;5085185;28;19923;-70
2022/10/06 05:36:08;;;;;;;;;;;13.40;93.50;;;;;;5079775;28;20284;-70
2022/10/06 05:38:33;;;;;;;;;;;13.40;93.50;;;;;;5065760;28;20376;-70
2022/10/06 05:41:03;;;;;;;;;;;13.40;93.50;;;;;;5077350;28;19923;-70
2022/10/06 05:43:28;;;;;;;;;;;13.30;93.50;;;;;;5084098;28;19918;-70
2022/10/06 05:45:55;;;;;;;;;;;13.30;93.40;;;;;;5081450;28;19916;-70
2022/10/06 05:48:20;;;;;;;;;;;13.30;93.40;;;;;;5083874;28;19913;-70
2022/10/06 05:50:46;;;;;;;;;;;13.30;93.40;;;;;;5079502;28;19913;-70
2022/10/06 05:53:12;;;;;;;;;;;13.30;93.40;;;;;;5083556;28;20280;-70
2022/10/06 05:55:37;;;;;;;;;;;13.30;93.30;;;;;;5081735;28;19923;-70
2022/10/06 05:58:03;;;;;;;;;;;13.30;93.40;;;;;;5080427;28;19912;-70
2022/10/06 06:00:29;;;;;;;;;;;13.30;93.40;;;;;;5081126;28;20138;-70
2022/10/06 06:02:54;;;;;;;;;;;13.30;93.40;;;;;;5083972;28;19919;-70
2022/10/06 06:05:20;;;;;;;;;;;13.30;93.40;;;;;;5080668;28;19920;-70
2022/10/06 06:07:45;;;;;;;;;;;13.30;93.40;;;;;;5082897;28;20370;-71
2022/10/06 06:10:11;;;;;;;;;;;13.30;93.40;;;;;;5084053;28;19944;-70
2022/10/06 06:12:36;;;;;;;;;;;13.20;93.40;;;;;;5081796;28;19917;-70
2022/10/06 06:17:46;;;;;;;;;;;13.20;93.40;;;;;;5082175;28;19927;-70
2022/10/06 06:20:12;;;;;;;;;;;13.20;93.40;;;;;;5084122;28;20360;-70
2022/10/06 06:22:37;;;;;;;;;;;13.20;93.40;;;;;;5078507;28;20016;-70
2022/10/06 06:25:03;;;;;;;;;;;13.20;93.40;;;;;;5087551;28;19912;-70
2022/10/06 06:27:28;;;;;;;;;;;13.20;93.40;;;;;;5084384;28;20570;-70
2022/10/06 06:29:56;;;;;;;;;;;13.20;93.20;;;;;;5084523;28;19923;-70
2022/10/06 06:32:21;;;;;;;;;;;13.20;93.30;;;;;;5085216;28;19920;-70
2022/10/06 06:34:47;;;;;;;;;;;13.20;93.30;;;;;;5087430;28;19919;-70
2022/10/06 06:37:12;;;;;;;;;;;13.20;93.30;;;;;;5085075;28;19938;-70
2022/10/06 06:39:38;;;;;;;;;;;13.20;93.30;;;;;;5086810;28;19923;-70
2022/10/06 06:42:04;;;;;;;;;;;13.20;93.30;;;;;;5082977;28;20082;-70
2022/10/06 06:44:29;;;;;;;;;;;13.10;93.20;;;;;;5087190;28;19912;-70
2022/10/06 06:46:55;;;;;;;;;;;13.20;93.20;;;;;;5084494;28;20258;-70
2022/10/06 06:49:21;;;;;;;;;;;13.20;93.20;;;;;;5069000;28;19958;-70
2022/10/06 06:51:49;;;;;;;;;;;13.10;93.20;;;;;;5087328;28;19912;-70
2022/10/06 06:54:15;;;;;;;;;;;13.10;93.20;;;;;;5065191;28;19927;-71
2022/10/06 06:56:41;;;;;;;;;;;13.10;93.20;;;;;;5082428;28;19920;-70
2022/10/06 06:59:09;;;;;;;;;;;13.10;93.20;;;;;;5084720;28;19919;-70
2022/10/06 07:01:35;;;;;;;;;;;13.10;93.20;;;;;;5081845;28;19920;-70
2022/10/06 07:04:00;;;;;;;;;;;13.10;93.10;;;;;;5084916;28;19908;-70
2022/10/06 07:06:27;;;;;;;;;;;13.10;93.20;;;;;;5068500;28;20296;-70
2022/10/06 07:08:53;;;;;;;;;;;13.10;93.00;;;;;;5080616;28;19962;-70
2022/10/06 07:11:29;;;;;;;;;;;13.10;93.40;;;;;;5083868;28;19916;-70
2022/10/06 07:13:56;;;;;;;;;;;13.10;93.10;;;;;;5082913;28;19947;-70
2022/10/06 07:27:20;;;;;;;;;;;13.10;93.00;;;;;;5080721;28;19961;-70
2022/10/06 07:29:45;;;;;;;;;;;13.10;93.00;;;;;;5083730;28;19924;-70
2022/10/06 07:32:11;;;;;;;;;;;13.10;92.80;;;;;;5086363;28;20011;-71
2022/10/06 07:34:38;;;;;;;;;;;13.10;93.00;;;;;;5083109;28;19921;-70
2022/10/06 07:37:03;;;;;;;;;;;13.10;92.90;;;;;;5083491;28;20418;-70
2022/10/06 07:39:30;;;;;;;;;;;13.10;92.90;;;;;;5083429;28;19950;-70
2022/10/06 07:41:56;;;;;;;;;;;13.10;92.90;;;;;;5084364;28;20340;-70
2022/10/06 07:44:22;;;;;;;;;;;13.10;92.80;;;;;;5082832;28;19916;-70
2022/10/06 07:46:47;;;;;;;;;;;13.20;92.90;;;;;;5083314;28;19922;-70
2022/10/06 07:49:16;;;;;;;;;;;13.20;92.90;;;;;;5084431;28;19916;-70
2022/10/06 07:51:42;;;;;;;;;;;13.20;92.80;;;;;;5085613;28;19912;-70
2022/10/06 07:54:07;;;;;;;;;;;13.20;92.80;;;;;;5086016;28;20476;-70
2022/10/06 07:56:33;;;;;;;;;;;13.20;92.70;;;;;;5078452;28;19966;-70
2022/10/06 07:58:58;;;;;;;;;;;13.20;92.80;;;;;;5081010;28;19999;-70
2022/10/06 08:01:26;;;;;;;;;;;13.20;92.60;;;;;;5080810;28;19920;-70
2022/10/06 08:03:51;;;;;;;;;;;13.20;92.70;;;;;;5086265;28;20552;-70
2022/10/06 08:06:18;;;;;;;;;;;13.20;92.60;;;;;;5080698;28;19916;-70
2022/10/06 08:08:44;;;;;;;;;;;13.20;92.60;;;;;;5085737;28;19919;-70
2022/10/06 08:11:10;;;;;;;;;;;13.20;92.70;;;;;;5082141;28;19923;-70
2022/10/06 08:13:37;;;;;;;;;;;13.20;92.60;;;;;;5085955;28;19916;-70
2022/10/06 08:16:07;;;;;;;;;;;13.20;92.70;;;;;;5081618;28;19932;-70
2022/10/06 08:18:33;;;;;;;;;;;13.20;92.70;;;;;;5084421;28;19918;-70
2022/10/06 08:20:58;;;;;;;;;;;13.20;92.50;;;;;;5082219;28;19920;-70
2022/10/06 08:23:25;;;;;;;;;;;13.20;92.60;;;;;;5085804;28;19908;-70
2022/10/06 08:25:52;;;;;;;;;;;13.20;92.50;;;;;;5080411;28;20394;-70
2022/10/06 08:28:19;;;;;;;;;;;13.20;92.60;;;;;;5085112;28;20733;-70
2022/10/06 08:30:44;;;;;;;;;;;13.30;92.50;;;;;;5083891;28;20361;-70
2022/10/06 08:33:10;;;;;;;;;;;13.30;92.50;;;;;;5081241;28;19930;-70
2022/10/06 08:35:36;;;;;;;;;;;13.30;92.60;;;;;;5085410;28;19916;-70
2022/10/06 08:38:01;;;;;;;;;;;13.30;92.50;;;;;;5082724;28;20033;-70
2022/10/06 08:40:27;;;;;;;;;;;13.30;92.50;;;;;;5061785;28;19912;-70
2022/10/06 08:42:55;;;;;;;;;;;13.40;92.50;;;;;;5064623;28;20422;-70
2022/10/06 08:45:22;;;;;;;;;;;13.40;92.50;;;;;;5083900;28;19937;-70
2022/10/06 08:47:51;;;;;;;;;;;13.40;92.50;;;;;;5082947;28;20030;-70
2022/10/06 08:50:17;;;;;;;;;;;13.40;92.40;;;;;;5084192;28;19923;-70
2022/10/06 08:52:59;;;;;;;;;;;13.40;92.40;;;;;;5082505;28;20685;-70
2022/10/06 08:55:28;;;;;;;;;;;13.50;92.40;;;;;;5082929;28;19919;-70
2022/10/06 08:58:12;;;;;;;;;;;13.50;92.40;;;;;;5082071;28;19916;-70
2022/10/06 09:00:37;;;;;;;;;;;13.50;92.30;;;;;;5083655;28;20543;-70
2022/10/06 09:03:03;;;;;;;;;;;13.50;92.30;;;;;;5081029;28;19916;-70
2022/10/06 09:05:30;;;;;;;;;;;13.50;92.30;;;;;;5079693;28;19921;-70
2022/10/06 09:08:05;;;;;;;;;;;13.50;92.20;;;;;;5074885;28;19924;-70
2022/10/06 09:10:43;;;;;;;;;;;13.50;92.20;;;;;;5065650;28;19924;-70
2022/10/06 09:13:21;;;;;;;;;;;13.50;92.20;;;;;;5075178;28;19921;-70
2022/10/06 09:15:49;;;;;;;;;;;13.50;92.10;;;;;;5080207;28;19912;-70
2022/10/06 09:18:27;;;;;;;;;;;13.60;92.10;;;;;;5081950;28;19940;-70
2022/10/06 09:20:56;;;;;;;;;;;13.60;92.10;;;;;;5079416;28;19912;-70
2022/10/06 09:26:14;;;;;;;;;;;13.60;92.00;;;;;;5079188;28;19938;-70
2022/10/06 09:28:39;;;;;;;;;;;13.60;92.00;;;;;;5081391;28;19919;-70
2022/10/06 09:31:28;;;;;;;;;;;13.70;92.00;;;;;;5084320;28;19916;-70
2022/10/06 09:34:04;;;;;;;;;;;13.70;91.90;;;;;;5071071;28;19931;-70
2022/10/06 09:36:30;;;;;;;;;;;13.70;91.90;;;;;;5084426;28;20033;-70
2022/10/06 09:38:56;;;;;;;;;;;13.70;91.90;;;;;;5080686;28;19945;-70
2022/10/06 09:41:30;;;;;;;;;;;13.70;91.80;;;;;;5079142;28;19912;-70
2022/10/06 09:43:57;;;;;;;;;;;13.80;91.80;;;;;;5080038;28;19927;-70
2022/10/06 09:46:27;;;;;;;;;;;13.80;91.80;;;;;;5084086;28;19919;-70
2022/10/06 09:49:06;;;;;;;;;;;13.80;91.70;;;;;;5081670;28;19912;-70
2022/10/06 09:51:34;;;;;;;;;;;13.90;91.70;;;;;;5082947;28;20582;-70
2022/10/06 09:54:10;;;;;;;;;;;13.90;91.70;;;;;;5082822;28;19916;-70
2022/10/06 09:56:39;;;;;;;;;;;13.90;91.60;;;;;;5082617;28;19920;-70
2022/10/06 09:59:14;;;;;;;;;;;13.90;91.50;;;;;;5087610;28;19912;-70
2022/10/06 10:01:40;;;;;;;;;;;14.00;91.50;;;;;;5086524;28;19923;-70
2022/10/06 10:04:11;;;;;;;;;;;14.00;91.40;;;;;;5088663;28;19915;-70
2022/10/06 10:06:37;;;;;;;;;;;14.00;91.40;;;;;;5084346;28;19956;-70
2022/10/06 10:09:21;;;;;;;;;;;14.10;91.30;;;;;;5086065;28;19954;-70
2022/10/06 10:12:28;;;;;;;;;;;14.10;91.30;;;;;;5083562;28;19935;-70
2022/10/06 10:15:17;;;;;;;;;;;14.10;91.10;;;;;;5082653;28;20618;-70
2022/10/06 10:17:49;;;;;;;;;;;14.20;91.10;;;;;;5075390;28;19942;-70
2022/10/06 10:20:23;;;;;;;;;;;14.20;91.10;;;;;;5084645;28;19935;-70
2022/10/06 10:22:49;;;;;;;;;;;14.30;91.00;;;;;;5086942;28;19916;-70
2022/10/06 10:25:14;;;;;;;;;;;14.30;90.90;;;;;;5085412;28;19919;-70
2022/10/06 10:27:40;;;;;;;;;;;14.40;91.00;;;;;;5068048;28;19916;-70
2022/10/06 10:30:06;;;;;;;;;;;14.30;90.60;;;;;;5082740;28;20403;-69
2022/10/06 10:32:45;;;;;;;;;;;14.40;90.70;;;;;;5084171;28;19920;-70
2022/10/06 10:35:12;;;;;;;;;;;14.40;90.60;;;;;;5087308;28;19916;-70
2022/10/06 10:37:46;;;;;;;;;;;14.40;90.70;;;;;;5082564;28;19973;-70
2022/10/06 10:40:20;;;;;;;;;;;14.50;90.70;;;;;;5082220;28;19966;-70
2022/10/06 10:42:50;;;;;;;;;;;14.50;90.60;;;;;;5082457;28;19924;-70
2022/10/06 10:45:32;;;;;;;;;;;14.50;90.30;;;;;;5086172;28;19930;-70
2022/10/06 10:47:59;;;;;;;;;;;14.50;90.60;;;;;;5079576;28;19976;-70
2022/10/06 10:50:30;;;;;;;;;;;14.60;90.40;;;;;;5084523;28;19943;-70
2022/10/06 10:53:02;;;;;;;;;;;14.60;90.30;;;;;;5084613;28;19931;-70
2022/10/06 10:55:43;;;;;;;;;;;14.60;90.50;;;;;;5086481;28;19999;-70
2022/10/06 10:58:17;;;;;;;;;;;14.60;89.80;;;;;;5083709;28;19920;-70
2022/10/06 11:00:44;;;;;;;;;;;14.60;90.50;;;;;;5086699;28;19969;-70
2022/10/06 11:03:10;;;;;;;;;;;14.70;90.30;;;;;;5084114;28;19981;-70
2022/10/06 11:05:48;;;;;;;;;;;14.70;89.90;;;;;;5086970;28;20365;-69
2022/10/06 11:08:13;;;;;;;;;;;14.70;89.40;;;;;;5084117;28;19916;-70
2022/10/06 11:10:44;;;;;;;;;;;14.70;90.10;;;;;;5085892;28;19912;-70
2022/10/06 11:13:18;;;;;;;;;;;14.80;89.60;;;;;;5082273;28;19937;-70
2022/10/06 11:15:59;;;;;;;;;;;14.80;90.10;;;;;;5077632;28;19923;-70
2022/10/06 11:18:24;;;;;;;;;;;14.90;89.10;;;;;;5084528;28;20433;-70
2022/10/06 11:20:54;;;;;;;;;;;14.90;90.10;;;;;;5084265;28;19916;-70
2022/10/06 11:23:21;;;;;;;;;;;15.00;89.90;;;;;;5084316;28;19923;-71
2022/10/06 11:26:06;;;;;;;;;;;15.00;89.70;;;;;;5086703;28;20428;-70
2022/10/06 11:28:32;;;;;;;;;;;15.10;89.30;;;;;;5079960;28;19923;-71
2022/10/06 11:31:23;;;;;;;;;;;15.20;89.90;;;;;;5085069;28;19920;-70
2022/10/06 11:33:50;;;;;;;;;;;15.20;89.00;;;;;;5080041;28;20610;-70
2022/10/06 11:36:28;;;;;;;;;;;15.30;89.50;;;;;;5066005;28;19982;-70
2022/10/06 11:39:17;;;;;;;;;;;15.30;89.40;;;;;;5083337;28;19948;-70
2022/10/06 11:41:45;;;;;;;;;;;15.40;88.80;;;;;;5074537;28;19912;-70
2022/10/06 11:44:16;;;;;;;;;;;15.40;89.40;;;;;;5083355;28;19931;-70
2022/10/06 11:46:44;;;;;;;;;;;15.50;89.70;;;;;;5084070;28;20485;-70
2022/10/06 11:49:28;;;;;;;;;;;15.60;88.70;;;;;;5082629;28;19912;-70
2022/10/06 11:51:54;;;;;;;;;;;15.70;89.30;;;;;;5079936;28;19924;-71
2022/10/06 11:54:38;;;;;;;;;;;15.70;89.60;;;;;;5083378;28;19916;-70
2022/10/06 11:57:26;;;;;;;;;;;15.70;89.80;;;;;;5082842;28;20518;-71
2022/10/06 11:59:53;;;;;;;;;;;15.80;89.50;;;;;;5064720;28;19944;-71
2022/10/06 12:02:31;;;;;;;;;;;15.80;89.40;;;;;;5077931;28;19924;-71
2022/10/06 12:05:08;;;;;;;;;;;15.80;89.60;;;;;;5076549;28;20613;-71
2022/10/06 12:07:52;;;;;;;;;;;15.90;89.30;;;;;;5085220;28;19920;-71
2022/10/06 12:10:26;;;;;;;;;;;15.90;89.50;;;;;;5076436;28;20365;-71
2022/10/06 12:12:53;;;;;;;;;;;16.00;89.40;;;;;;5067045;28;19949;-70
2022/10/06 12:15:26;;;;;;;;;;;16.00;89.00;;;;;;5081136;28;19923;-70
2022/10/06 12:17:54;;;;;;;;;;;16.10;89.10;;;;;;5080057;28;19952;-71
2022/10/06 12:20:22;;;;;;;;;;;16.10;89.20;;;;;;5079555;28;20328;-71
2022/10/06 12:22:50;;;;;;;;;;;16.20;88.60;;;;;;5084903;28;20024;-71
2022/10/06 12:25:16;;;;;;;;;;;16.20;88.60;;;;;;5082765;28;19912;-71
2022/10/06 12:28:09;;;;;;;;;;;16.30;88.60;;;;;;5084814;28;19912;-71
2022/10/06 12:30:58;;;;;;;;;;;16.30;87.50;;;;;;5045325;28;19917;-71
2022/10/06 12:33:34;;;;;;;;;;;16.40;88.80;;;;;;5051893;28;19920;-70
2022/10/06 12:36:03;;;;;;;;;;;16.40;89.10;;;;;;5082485;28;19919;-70
2022/10/06 12:38:40;;;;;;;;;;;16.40;88.80;;;;;;5083756;28;20003;-71
2022/10/06 12:41:12;;;;;;;;;;;16.50;86.60;;;;;;5079726;28;19924;-71
2022/10/06 12:43:46;;;;;;;;;;;16.50;87.70;;;;;;5085872;28;19916;-71
2022/10/06 12:46:20;;;;;;;;;;;16.50;88.50;;;;;;5081628;28;19961;-71
2022/10/06 12:48:52;;;;;;;;;;;16.60;88.90;;;;;;5082789;28;19920;-72
2022/10/06 12:51:17;;;;;;;;;;;16.60;88.60;;;;;;5062407;28;19920;-71
2022/10/06 12:53:56;;;;;;;;;;;16.60;89.00;;;;;;5082611;28;19916;-70
2022/10/06 12:56:32;;;;;;;;;;;16.70;88.50;;;;;;5080830;28;20007;-70
2022/10/06 12:59:17;;;;;;;;;;;16.70;89.40;;;;;;5065359;28;19912;-71
2022/10/06 13:01:43;;;;;;;;;;;16.80;89.00;;;;;;5079238;28;19916;-71
2022/10/06 13:04:28;;;;;;;;;;;16.80;89.20;;;;;;5084436;28;19916;-71
2022/10/06 13:06:53;;;;;;;;;;;16.80;89.00;;;;;;5079577;28;19927;-71
2022/10/06 13:09:20;;;;;;;;;;;16.80;88.90;;;;;;5084870;28;20404;-71
2022/10/06 13:11:48;;;;;;;;;;;16.90;89.80;;;;;;5081537;28;19916;-71
2022/10/06 13:14:13;;;;;;;;;;;16.90;89.10;;;;;;5085163;28;19916;-71
2022/10/06 13:16:44;;;;;;;;;;;16.90;88.30;;;;;;5082716;28;19912;-71
2022/10/06 13:19:14;;;;;;;;;;;17.00;89.60;;;;;;5080228;28;19951;-71
2022/10/06 13:21:40;;;;;;;;;;;17.00;89.30;;;;;;5063428;28;19916;-70
2022/10/06 13:24:09;;;;;;;;;;;17.00;88.90;;;;;;5081973;28;20305;-71
2022/10/06 13:26:34;;;;;;;;;;;17.00;88.50;;;;;;5084452;28;19917;-71
2022/10/06 13:29:00;;;;;;;;;;;17.00;88.60;;;;;;5082114;28;19939;-71
2022/10/06 13:31:30;;;;;;;;;;;17.00;88.90;;;;;;5084963;28;20269;-71
2022/10/06 13:34:00;;;;;;;;;;;17.10;89.30;;;;;;5086861;28;19950;-71
2022/10/06 13:36:27;;;;;;;;;;;17.10;89.30;;;;;;5087545;28;19962;-71
2022/10/06 13:38:52;;;;;;;;;;;17.10;89.60;;;;;;5086002;28;20014;-71
2022/10/06 13:41:18;;;;;;;;;;;17.10;86.60;;;;;;5087565;28;20766;-71
2022/10/06 13:43:46;;;;;;;;;;;17.10;86.80;;;;;;5086226;28;19930;-71
2022/10/06 13:46:13;;;;;;;;;;;17.20;88.60;;;;;;5085687;28;19952;-71
2022/10/06 13:48:59;;;;;;;;;;;17.20;89.80;;;;;;5084253;28;19916;-71
2022/10/06 13:51:29;;;;;;;;;;;17.10;89.40;;;;;;5068850;28;19919;-71
2022/10/06 13:53:56;;;;;;;;;;;17.20;88.30;;;;;;5085235;28;19931;-71
2022/10/06 13:56:36;;;;;;;;;;;17.20;89.90;;;;;;5088334;28;20621;-71
2022/10/06 13:59:21;;;;;;;;;;;17.20;89.60;;;;;;5084366;28;19912;-71
2022/10/06 14:01:47;;;;;;;;;;;17.20;89.80;;;;;;5083000;28;19947;-71
2022/10/06 14:04:13;;;;;;;;;;;17.20;88.30;;;;;;5085524;28;19962;-71
2022/10/06 14:06:45;;;;;;;;;;;17.20;86.70;;;;;;5087923;28;19920;-71
2022/10/06 14:09:12;;;;;;;;;;;17.20;88.30;;;;;;5084343;28;19916;-71
2022/10/06 14:11:38;;;;;;;;;;;17.20;86.40;;;;;;5086724;28;20654;-71
2022/10/06 14:14:05;;;;;;;;;;;17.30;86.80;;;;;;5085475;28;19924;-70
2022/10/06 14:16:31;;;;;;;;;;;17.20;89.50;;;;;;5087206;28;19923;-71
2022/10/06 14:19:02;;;;;;;;;;;17.20;88.70;;;;;;5088034;28;20445;-71
2022/10/06 14:21:30;;;;;;;;;;;17.20;88.90;;;;;;5085142;28;19908;-71
2022/10/06 14:23:56;;;;;;;;;;;17.20;89.30;;;;;;5088558;28;19924;-71
2022/10/06 14:26:23;;;;;;;;;;;17.20;89.80;;;;;;5082253;28;20262;-70
2022/10/06 14:28:53;;;;;;;;;;;17.20;90.00;;;;;;5087965;28;19927;-70
2022/10/06 14:31:20;;;;;;;;;;;17.20;88.60;;;;;;5083780;28;19916;-71
2022/10/06 14:33:47;;;;;;;;;;;17.20;89.80;;;;;;5083794;28;19960;-71
2022/10/06 14:36:18;;;;;;;;;;;17.20;88.80;;;;;;5082233;28;19916;-70
2022/10/06 14:38:45;;;;;;;;;;;17.20;89.10;;;;;;5087678;28;19965;-71
2022/10/06 14:41:11;;;;;;;;;;;17.20;88.80;;;;;;5083594;28;19920;-71